sensor_id;sensor_type;location;lat;lon;timestamp;P1;durP1;ratioP1;P2;durP2;ratioP2
92;SDS011;16232;48.800;9.002;2024-02-26T00:01:21;4.30;;;2.43;;
92;SDS011;16232;48.800;9.002;2024-02-26T00:03:48;3.37;;;2.67;;
92;SDS011;16232;48.800;9.002;2024-02-26T00:06:16;3.60;;;2.33;;
92;SDS011;16232;48.800;9.002;2024-02-26T00:08:45;3.53;;;2.70;;
92;SDS011;16232;48.800;9.002;2024-02-26T00:11:12;2.70;;;2.17;;
92;SDS011;16232;48.800;9.002;2024-02-26T00:13:39;3.37;;;2.50;;
92;SDS011;16232;48.800;9.002;2024-02-26T00:16:07;5.67;;;2.33;;
92;SDS011;16232;48.800;9.002;2024-02-26T00:18:35;3.60;;;2.40;;
92;SDS011;16232;48.800;9.002;2024-02-26T00:21:03;4.00;;;2.50;;
92;SDS011;16232;48.800;9.002;2024-02-26T00:23:30;3.87;;;2.07;;
92;SDS011;16232;48.800;9.002;2024-02-26T00:25:59;3.70;;;2.50;;
92;SDS011;16232;48.800;9.002;2024-02-26T00:28:27;4.23;;;2.70;;
92;SDS011;16232;48.800;9.002;2024-02-26T00:30:54;4.40;;;2.13;;
92;SDS011;16232;48.800;9.002;2024-02-26T00:33:22;3.53;;;2.33;;
92;SDS011;16232;48.800;9.002;2024-02-26T00:35:49;3.30;;;2.40;;
92;SDS011;16232;48.800;9.002;2024-02-26T00:38:17;2.93;;;2.00;;
92;SDS011;16232;48.800;9.002;2024-02-26T00:40:44;3.40;;;2.10;;
92;SDS011;16232;48.800;9.002;2024-02-26T00:43:13;5.37;;;2.30;;
92;SDS011;16232;48.800;9.002;2024-02-26T00:45:40;2.90;;;1.93;;
92;SDS011;16232;48.800;9.002;2024-02-26T00:48:08;4.37;;;2.70;;
92;SDS011;16232;48.800;9.002;2024-02-26T00:50:35;3.30;;;2.63;;
92;SDS011;16232;48.800;9.002;2024-02-26T00:53:03;3.47;;;2.27;;
92;SDS011;16232;48.800;9.002;2024-02-26T00:55:30;4.50;;;2.43;;
92;SDS011;16232;48.800;9.002;2024-02-26T00:58:01;4.87;;;2.43;;
92;SDS011;16232;48.800;9.002;2024-02-26T01:00:30;2.80;;;2.50;;
92;SDS011;16232;48.800;9.002;2024-02-26T01:02:57;3.13;;;2.37;;
92;SDS011;16232;48.800;9.002;2024-02-26T01:05:25;3.17;;;2.40;;
92;SDS011;16232;48.800;9.002;2024-02-26T01:07:52;3.17;;;2.40;;
92;SDS011;16232;48.800;9.002;2024-02-26T01:10:20;3.47;;;2.37;;
92;SDS011;16232;48.800;9.002;2024-02-26T01:12:47;4.07;;;2.70;;
92;SDS011;16232;48.800;9.002;2024-02-26T01:15:15;2.83;;;2.23;;
92;SDS011;16232;48.800;9.002;2024-02-26T01:17:45;4.17;;;2.80;;
92;SDS011;16232;48.800;9.002;2024-02-26T01:20:13;3.20;;;2.37;;
92;SDS011;16232;48.800;9.002;2024-02-26T01:22:40;3.87;;;2.40;;
92;SDS011;16232;48.800;9.002;2024-02-26T01:25:07;5.07;;;3.53;;
92;SDS011;16232;48.800;9.002;2024-02-26T01:27:35;4.07;;;2.87;;
92;SDS011;16232;48.800;9.002;2024-02-26T01:30:03;4.80;;;2.27;;
92;SDS011;16232;48.800;9.002;2024-02-26T01:32:30;3.67;;;2.70;;
92;SDS011;16232;48.800;9.002;2024-02-26T01:34:59;3.63;;;2.47;;
92;SDS011;16232;48.800;9.002;2024-02-26T01:37:27;5.40;;;2.87;;
92;SDS011;16232;48.800;9.002;2024-02-26T01:39:56;3.20;;;2.63;;
92;SDS011;16232;48.800;9.002;2024-02-26T01:42:23;3.70;;;2.47;;
92;SDS011;16232;48.800;9.002;2024-02-26T01:44:50;3.57;;;2.17;;
92;SDS011;16232;48.800;9.002;2024-02-26T01:47:18;3.83;;;2.50;;
92;SDS011;16232;48.800;9.002;2024-02-26T01:49:45;3.57;;;2.63;;
92;SDS011;16232;48.800;9.002;2024-02-26T01:52:14;3.73;;;2.70;;
92;SDS011;16232;48.800;9.002;2024-02-26T01:54:42;4.80;;;2.07;;
92;SDS011;16232;48.800;9.002;2024-02-26T01:57:10;3.33;;;2.17;;
92;SDS011;16232;48.800;9.002;2024-02-26T01:59:38;2.87;;;2.47;;
92;SDS011;16232;48.800;9.002;2024-02-26T02:02:07;5.37;;;2.70;;
92;SDS011;16232;48.800;9.002;2024-02-26T02:04:35;3.27;;;2.30;;
92;SDS011;16232;48.800;9.002;2024-02-26T02:07:03;2.70;;;2.30;;
92;SDS011;16232;48.800;9.002;2024-02-26T02:09:33;2.97;;;2.20;;
92;SDS011;16232;48.800;9.002;2024-02-26T02:12:00;4.77;;;2.67;;
92;SDS011;16232;48.800;9.002;2024-02-26T02:14:28;3.87;;;2.63;;
92;SDS011;16232;48.800;9.002;2024-02-26T02:16:55;4.30;;;2.50;;
92;SDS011;16232;48.800;9.002;2024-02-26T02:19:22;3.57;;;2.50;;
92;SDS011;16232;48.800;9.002;2024-02-26T02:21:51;4.87;;;2.70;;
92;SDS011;16232;48.800;9.002;2024-02-26T02:24:19;2.27;;;2.07;;
92;SDS011;16232;48.800;9.002;2024-02-26T02:26:46;4.63;;;2.10;;
92;SDS011;16232;48.800;9.002;2024-02-26T02:29:14;3.30;;;1.17;;
92;SDS011;16232;48.800;9.002;2024-02-26T02:31:41;2.03;;;1.10;;
92;SDS011;16232;48.800;9.002;2024-02-26T02:34:09;2.07;;;1.00;;
92;SDS011;16232;48.800;9.002;2024-02-26T02:36:47;2.67;;;1.90;;
92;SDS011;16232;48.800;9.002;2024-02-26T02:39:16;1.60;;;1.20;;
92;SDS011;16232;48.800;9.002;2024-02-26T02:41:44;2.37;;;1.33;;
92;SDS011;16232;48.800;9.002;2024-02-26T02:44:11;1.20;;;0.97;;
92;SDS011;16232;48.800;9.002;2024-02-26T02:46:39;0.80;;;0.80;;
92;SDS011;16232;48.800;9.002;2024-02-26T02:49:07;1.17;;;0.80;;
92;SDS011;16232;48.800;9.002;2024-02-26T02:51:36;1.00;;;0.90;;
92;SDS011;16232;48.800;9.002;2024-02-26T02:54:03;0.97;;;0.67;;
92;SDS011;16232;48.800;9.002;2024-02-26T02:56:34;1.63;;;1.20;;
92;SDS011;16232;48.800;9.002;2024-02-26T02:59:01;1.07;;;0.90;;
92;SDS011;16232;48.800;9.002;2024-02-26T03:01:29;3.47;;;1.30;;
92;SDS011;16232;48.800;9.002;2024-02-26T03:03:57;1.67;;;1.57;;
92;SDS011;16232;48.800;9.002;2024-02-26T03:06:24;2.20;;;1.50;;
92;SDS011;16232;48.800;9.002;2024-02-26T03:08:53;2.80;;;1.50;;
92;SDS011;16232;48.800;9.002;2024-02-26T03:11:20;1.93;;;1.43;;
92;SDS011;16232;48.800;9.002;2024-02-26T03:13:49;1.20;;;1.10;;
92;SDS011;16232;48.800;9.002;2024-02-26T03:16:16;2.20;;;1.70;;
92;SDS011;16232;48.800;9.002;2024-02-26T03:18:44;2.20;;;1.20;;
92;SDS011;16232;48.800;9.002;2024-02-26T03:21:12;1.50;;;1.30;;
92;SDS011;16232;48.800;9.002;2024-02-26T03:23:39;2.23;;;1.50;;
92;SDS011;16232;48.800;9.002;2024-02-26T03:26:06;1.50;;;1.40;;
92;SDS011;16232;48.800;9.002;2024-02-26T03:28:36;2.10;;;0.90;;
92;SDS011;16232;48.800;9.002;2024-02-26T03:31:05;1.27;;;0.90;;
92;SDS011;16232;48.800;9.002;2024-02-26T03:33:33;0.50;;;0.50;;
92;SDS011;16232;48.800;9.002;2024-02-26T03:36:01;1.37;;;0.60;;
92;SDS011;16232;48.800;9.002;2024-02-26T03:38:28;1.23;;;0.63;;
92;SDS011;16232;48.800;9.002;2024-02-26T03:40:56;1.30;;;0.57;;
92;SDS011;16232;48.800;9.002;2024-02-26T03:43:24;1.00;;;0.70;;
92;SDS011;16232;48.800;9.002;2024-02-26T03:45:51;1.27;;;0.60;;
92;SDS011;16232;48.800;9.002;2024-02-26T03:48:20;1.23;;;0.70;;
92;SDS011;16232;48.800;9.002;2024-02-26T03:50:47;0.63;;;0.60;;
92;SDS011;16232;48.800;9.002;2024-02-26T03:53:14;1.43;;;0.70;;
92;SDS011;16232;48.800;9.002;2024-02-26T03:55:42;0.97;;;0.73;;
92;SDS011;16232;48.800;9.002;2024-02-26T03:58:09;0.70;;;0.63;;
92;SDS011;16232;48.800;9.002;2024-02-26T04:00:39;1.30;;;0.60;;
92;SDS011;16232;48.800;9.002;2024-02-26T04:03:06;0.80;;;0.60;;
92;SDS011;16232;48.800;9.002;2024-02-26T04:05:35;1.03;;;0.60;;
92;SDS011;16232;48.800;9.002;2024-02-26T04:08:03;1.67;;;0.60;;
92;SDS011;16232;48.800;9.002;2024-02-26T04:10:32;1.40;;;0.70;;
92;SDS011;16232;48.800;9.002;2024-02-26T04:13:03;1.40;;;0.80;;
92;SDS011;16232;48.800;9.002;2024-02-26T04:15:31;1.73;;;0.67;;
92;SDS011;16232;48.800;9.002;2024-02-26T04:17:58;2.47;;;1.13;;
92;SDS011;16232;48.800;9.002;2024-02-26T04:20:25;0.50;;;0.50;;
92;SDS011;16232;48.800;9.002;2024-02-26T04:22:54;1.17;;;0.70;;
92;SDS011;16232;48.800;9.002;2024-02-26T04:25:22;0.93;;;0.57;;
92;SDS011;16232;48.800;9.002;2024-02-26T04:27:49;1.17;;;0.70;;
92;SDS011;16232;48.800;9.002;2024-02-26T04:30:16;0.57;;;0.53;;
92;SDS011;16232;48.800;9.002;2024-02-26T04:32:44;0.83;;;0.43;;
92;SDS011;16232;48.800;9.002;2024-02-26T04:35:11;0.70;;;0.60;;
92;SDS011;16232;48.800;9.002;2024-02-26T04:37:38;1.50;;;0.67;;
92;SDS011;16232;48.800;9.002;2024-02-26T04:40:08;0.87;;;0.60;;
92;SDS011;16232;48.800;9.002;2024-02-26T04:42:35;0.60;;;0.60;;
92;SDS011;16232;48.800;9.002;2024-02-26T04:45:03;1.10;;;0.60;;
92;SDS011;16232;48.800;9.002;2024-02-26T04:47:31;2.43;;;0.90;;
92;SDS011;16232;48.800;9.002;2024-02-26T04:49:58;0.93;;;0.83;;
92;SDS011;16232;48.800;9.002;2024-02-26T04:52:26;1.03;;;0.90;;
92;SDS011;16232;48.800;9.002;2024-02-26T04:54:53;0.97;;;0.67;;
92;SDS011;16232;48.800;9.002;2024-02-26T04:57:22;1.20;;;1.00;;
92;SDS011;16232;48.800;9.002;2024-02-26T04:59:49;1.43;;;1.27;;
92;SDS011;16232;48.800;9.002;2024-02-26T05:02:17;1.13;;;0.90;;
92;SDS011;16232;48.800;9.002;2024-02-26T05:04:44;1.73;;;1.23;;
92;SDS011;16232;48.800;9.002;2024-02-26T05:07:11;1.50;;;0.90;;
92;SDS011;16232;48.800;9.002;2024-02-26T05:09:39;1.43;;;1.10;;
92;SDS011;16232;48.800;9.002;2024-02-26T05:12:08;1.73;;;1.13;;
92;SDS011;16232;48.800;9.002;2024-02-26T05:14:37;1.83;;;1.30;;
92;SDS011;16232;48.800;9.002;2024-02-26T05:17:05;1.87;;;1.30;;
92;SDS011;16232;48.800;9.002;2024-02-26T05:19:32;2.10;;;1.40;;
92;SDS011;16232;48.800;9.002;2024-02-26T05:21:59;1.63;;;1.10;;
92;SDS011;16232;48.800;9.002;2024-02-26T05:24:27;2.67;;;1.00;;
92;SDS011;16232;48.800;9.002;2024-02-26T05:26:54;1.07;;;0.90;;
92;SDS011;16232;48.800;9.002;2024-02-26T05:29:21;1.73;;;1.00;;
92;SDS011;16232;48.800;9.002;2024-02-26T05:31:50;2.07;;;1.87;;
92;SDS011;16232;48.800;9.002;2024-02-26T05:34:19;1.13;;;1.00;;
92;SDS011;16232;48.800;9.002;2024-02-26T05:36:47;1.10;;;0.80;;
92;SDS011;16232;48.800;9.002;2024-02-26T05:39:14;10.40;;;3.50;;
92;SDS011;16232;48.800;9.002;2024-02-26T05:41:42;1.47;;;1.20;;
92;SDS011;16232;48.800;9.002;2024-02-26T05:44:11;1.60;;;1.33;;
92;SDS011;16232;48.800;9.002;2024-02-26T05:46:39;2.63;;;1.10;;
92;SDS011;16232;48.800;9.002;2024-02-26T05:49:08;13.30;;;7.97;;
92;SDS011;16232;48.800;9.002;2024-02-26T05:51:36;21.30;;;13.47;;
92;SDS011;16232;48.800;9.002;2024-02-26T05:54:03;14.70;;;8.80;;
92;SDS011;16232;48.800;9.002;2024-02-26T05:56:30;13.27;;;7.93;;
92;SDS011;16232;48.800;9.002;2024-02-26T05:59:01;6.40;;;3.17;;
92;SDS011;16232;48.800;9.002;2024-02-26T06:01:28;7.70;;;4.57;;
92;SDS011;16232;48.800;9.002;2024-02-26T06:03:56;4.97;;;3.63;;
92;SDS011;16232;48.800;9.002;2024-02-26T06:06:24;5.50;;;3.37;;
92;SDS011;16232;48.800;9.002;2024-02-26T06:08:52;3.17;;;2.40;;
92;SDS011;16232;48.800;9.002;2024-02-26T06:11:19;4.83;;;2.70;;
92;SDS011;16232;48.800;9.002;2024-02-26T06:13:48;2.83;;;2.17;;
92;SDS011;16232;48.800;9.002;2024-02-26T06:16:15;3.60;;;2.07;;
92;SDS011;16232;48.800;9.002;2024-02-26T06:18:42;2.93;;;1.93;;
92;SDS011;16232;48.800;9.002;2024-02-26T06:21:10;3.60;;;2.37;;
92;SDS011;16232;48.800;9.002;2024-02-26T06:23:39;4.33;;;2.73;;
92;SDS011;16232;48.800;9.002;2024-02-26T06:26:06;4.07;;;3.33;;
92;SDS011;16232;48.800;9.002;2024-02-26T06:28:35;3.17;;;2.10;;
92;SDS011;16232;48.800;9.002;2024-02-26T06:31:05;3.20;;;2.33;;
92;SDS011;16232;48.800;9.002;2024-02-26T06:33:33;4.20;;;3.03;;
92;SDS011;16232;48.800;9.002;2024-02-26T06:36:00;3.93;;;2.50;;
92;SDS011;16232;48.800;9.002;2024-02-26T06:38:28;3.93;;;3.13;;
92;SDS011;16232;48.800;9.002;2024-02-26T06:40:57;3.77;;;3.00;;
92;SDS011;16232;48.800;9.002;2024-02-26T06:43:24;5.17;;;3.80;;
92;SDS011;16232;48.800;9.002;2024-02-26T06:45:51;4.17;;;3.40;;
92;SDS011;16232;48.800;9.002;2024-02-26T06:48:19;3.73;;;2.77;;
92;SDS011;16232;48.800;9.002;2024-02-26T06:50:46;4.27;;;2.43;;
92;SDS011;16232;48.800;9.002;2024-02-26T06:53:13;3.33;;;2.17;;
92;SDS011;16232;48.800;9.002;2024-02-26T06:55:41;4.33;;;2.13;;
92;SDS011;16232;48.800;9.002;2024-02-26T06:58:10;2.40;;;1.70;;
92;SDS011;16232;48.800;9.002;2024-02-26T07:00:37;3.47;;;1.77;;
92;SDS011;16232;48.800;9.002;2024-02-26T07:03:05;1.63;;;1.40;;
92;SDS011;16232;48.800;9.002;2024-02-26T07:05:32;3.97;;;2.13;;
92;SDS011;16232;48.800;9.002;2024-02-26T07:07:59;3.17;;;2.13;;
92;SDS011;16232;48.800;9.002;2024-02-26T07:10:27;2.33;;;2.07;;
92;SDS011;16232;48.800;9.002;2024-02-26T07:12:54;3.50;;;2.13;;
92;SDS011;16232;48.800;9.002;2024-02-26T07:15:23;2.90;;;2.20;;
92;SDS011;16232;48.800;9.002;2024-02-26T07:17:50;3.03;;;1.87;;
92;SDS011;16232;48.800;9.002;2024-02-26T07:20:18;3.10;;;1.40;;
92;SDS011;16232;48.800;9.002;2024-02-26T07:22:45;2.87;;;1.70;;
92;SDS011;16232;48.800;9.002;2024-02-26T07:25:13;2.83;;;2.30;;
92;SDS011;16232;48.800;9.002;2024-02-26T07:27:41;4.27;;;3.57;;
92;SDS011;16232;48.800;9.002;2024-02-26T07:30:09;2.23;;;2.03;;
92;SDS011;16232;48.800;9.002;2024-02-26T07:32:38;2.03;;;1.67;;
92;SDS011;16232;48.800;9.002;2024-02-26T07:35:06;2.13;;;1.70;;
92;SDS011;16232;48.800;9.002;2024-02-26T07:37:33;4.33;;;3.03;;
92;SDS011;16232;48.800;9.002;2024-02-26T07:40:01;2.83;;;2.40;;
92;SDS011;16232;48.800;9.002;2024-02-26T07:42:28;2.83;;;2.33;;
92;SDS011;16232;48.800;9.002;2024-02-26T07:44:56;2.70;;;2.27;;
92;SDS011;16232;48.800;9.002;2024-02-26T07:47:23;2.23;;;2.00;;
92;SDS011;16232;48.800;9.002;2024-02-26T07:49:52;2.17;;;1.97;;
92;SDS011;16232;48.800;9.002;2024-02-26T07:52:19;2.50;;;2.30;;
92;SDS011;16232;48.800;9.002;2024-02-26T07:54:47;2.43;;;2.00;;
92;SDS011;16232;48.800;9.002;2024-02-26T07:57:14;2.50;;;1.93;;
92;SDS011;16232;48.800;9.002;2024-02-26T07:59:42;2.07;;;1.67;;
92;SDS011;16232;48.800;9.002;2024-02-26T08:02:14;3.23;;;2.13;;
92;SDS011;16232;48.800;9.002;2024-02-26T08:04:42;2.73;;;2.10;;
92;SDS011;16232;48.800;9.002;2024-02-26T08:07:13;2.33;;;1.97;;
92;SDS011;16232;48.800;9.002;2024-02-26T08:09:40;3.87;;;1.73;;
92;SDS011;16232;48.800;9.002;2024-02-26T08:12:08;1.70;;;1.50;;
92;SDS011;16232;48.800;9.002;2024-02-26T08:14:36;2.37;;;2.10;;
92;SDS011;16232;48.800;9.002;2024-02-26T08:17:03;2.63;;;2.17;;
92;SDS011;16232;48.800;9.002;2024-02-26T08:19:31;3.60;;;1.37;;
92;SDS011;16232;48.800;9.002;2024-02-26T08:21:58;1.67;;;1.17;;
92;SDS011;16232;48.800;9.002;2024-02-26T08:24:27;3.23;;;1.90;;
92;SDS011;16232;48.800;9.002;2024-02-26T08:26:54;2.67;;;2.47;;
92;SDS011;16232;48.800;9.002;2024-02-26T08:29:22;2.03;;;1.60;;
92;SDS011;16232;48.800;9.002;2024-02-26T08:31:49;1.83;;;1.33;;
92;SDS011;16232;48.800;9.002;2024-02-26T08:34:17;2.40;;;1.63;;
92;SDS011;16232;48.800;9.002;2024-02-26T08:36:44;4.43;;;1.47;;
92;SDS011;16232;48.800;9.002;2024-02-26T08:39:14;9.20;;;2.10;;
92;SDS011;16232;48.800;9.002;2024-02-26T08:41:44;2.70;;;1.73;;
92;SDS011;16232;48.800;9.002;2024-02-26T08:44:11;2.53;;;2.17;;
92;SDS011;16232;48.800;9.002;2024-02-26T08:46:39;2.73;;;2.20;;
92;SDS011;16232;48.800;9.002;2024-02-26T08:49:06;4.00;;;1.93;;
92;SDS011;16232;48.800;9.002;2024-02-26T08:51:34;3.50;;;2.10;;
92;SDS011;16232;48.800;9.002;2024-02-26T08:54:01;3.07;;;2.10;;
92;SDS011;16232;48.800;9.002;2024-02-26T08:56:29;2.13;;;1.80;;
92;SDS011;16232;48.800;9.002;2024-02-26T08:58:57;2.27;;;1.60;;
92;SDS011;16232;48.800;9.002;2024-02-26T09:01:28;2.37;;;1.57;;
92;SDS011;16232;48.800;9.002;2024-02-26T09:03:56;2.37;;;1.80;;
92;SDS011;16232;48.800;9.002;2024-02-26T09:06:23;2.43;;;1.73;;
92;SDS011;16232;48.800;9.002;2024-02-26T09:08:51;2.37;;;1.60;;
92;SDS011;16232;48.800;9.002;2024-02-26T09:11:19;2.73;;;1.70;;
92;SDS011;16232;48.800;9.002;2024-02-26T09:13:46;3.17;;;2.20;;
92;SDS011;16232;48.800;9.002;2024-02-26T09:16:15;2.40;;;1.90;;
92;SDS011;16232;48.800;9.002;2024-02-26T09:18:42;2.97;;;1.77;;
92;SDS011;16232;48.800;9.002;2024-02-26T09:21:10;2.70;;;1.87;;
92;SDS011;16232;48.800;9.002;2024-02-26T09:23:37;2.37;;;1.70;;
92;SDS011;16232;48.800;9.002;2024-02-26T09:26:05;3.57;;;2.40;;
92;SDS011;16232;48.800;9.002;2024-02-26T09:28:33;2.17;;;1.67;;
92;SDS011;16232;48.800;9.002;2024-02-26T09:31:03;2.17;;;1.93;;
92;SDS011;16232;48.800;9.002;2024-02-26T09:33:32;2.60;;;1.77;;
92;SDS011;16232;48.800;9.002;2024-02-26T09:36:00;2.33;;;1.80;;
92;SDS011;16232;48.800;9.002;2024-02-26T09:38:27;2.00;;;1.73;;
92;SDS011;16232;48.800;9.002;2024-02-26T09:40:55;2.10;;;1.60;;
92;SDS011;16232;48.800;9.002;2024-02-26T09:43:23;2.37;;;1.80;;
92;SDS011;16232;48.800;9.002;2024-02-26T09:45:51;2.97;;;1.90;;
92;SDS011;16232;48.800;9.002;2024-02-26T09:48:19;1.87;;;1.63;;
92;SDS011;16232;48.800;9.002;2024-02-26T09:50:48;3.30;;;1.87;;
92;SDS011;16232;48.800;9.002;2024-02-26T09:53:15;2.23;;;1.53;;
92;SDS011;16232;48.800;9.002;2024-02-26T09:55:44;3.53;;;1.73;;
92;SDS011;16232;48.800;9.002;2024-02-26T09:58:15;3.37;;;2.40;;
92;SDS011;16232;48.800;9.002;2024-02-26T10:00:45;2.70;;;1.77;;
92;SDS011;16232;48.800;9.002;2024-02-26T10:03:13;5.57;;;2.37;;
92;SDS011;16232;48.800;9.002;2024-02-26T10:05:42;2.67;;;2.07;;
92;SDS011;16232;48.800;9.002;2024-02-26T10:08:12;2.20;;;1.70;;
92;SDS011;16232;48.800;9.002;2024-02-26T10:10:40;2.93;;;2.13;;
92;SDS011;16232;48.800;9.002;2024-02-26T10:13:07;1.97;;;1.70;;
92;SDS011;16232;48.800;9.002;2024-02-26T10:15:35;1.70;;;1.27;;
92;SDS011;16232;48.800;9.002;2024-02-26T10:18:06;3.17;;;1.63;;
92;SDS011;16232;48.800;9.002;2024-02-26T10:20:33;2.73;;;1.70;;
92;SDS011;16232;48.800;9.002;2024-02-26T10:23:02;1.73;;;1.50;;
92;SDS011;16232;48.800;9.002;2024-02-26T10:25:31;3.13;;;1.57;;
92;SDS011;16232;48.800;9.002;2024-02-26T10:27:59;3.57;;;1.67;;
92;SDS011;16232;48.800;9.002;2024-02-26T10:30:28;4.30;;;1.70;;
92;SDS011;16232;48.800;9.002;2024-02-26T10:32:56;2.40;;;1.83;;
92;SDS011;16232;48.800;9.002;2024-02-26T10:35:23;2.70;;;1.93;;
92;SDS011;16232;48.800;9.002;2024-02-26T10:37:51;3.13;;;1.83;;
92;SDS011;16232;48.800;9.002;2024-02-26T10:40:19;3.20;;;2.33;;
92;SDS011;16232;48.800;9.002;2024-02-26T10:42:48;3.27;;;1.97;;
92;SDS011;16232;48.800;9.002;2024-02-26T10:45:15;3.73;;;2.13;;
92;SDS011;16232;48.800;9.002;2024-02-26T10:47:43;2.57;;;1.97;;
92;SDS011;16232;48.800;9.002;2024-02-26T10:50:10;5.50;;;2.40;;
92;SDS011;16232;48.800;9.002;2024-02-26T10:52:40;2.60;;;2.10;;
92;SDS011;16232;48.800;9.002;2024-02-26T10:55:11;3.43;;;1.97;;
92;SDS011;16232;48.800;9.002;2024-02-26T10:57:40;3.00;;;1.80;;
92;SDS011;16232;48.800;9.002;2024-02-26T11:00:13;3.33;;;1.87;;
92;SDS011;16232;48.800;9.002;2024-02-26T11:02:41;6.97;;;2.23;;
92;SDS011;16232;48.800;9.002;2024-02-26T11:05:09;3.37;;;2.37;;
92;SDS011;16232;48.800;9.002;2024-02-26T11:07:38;4.93;;;2.70;;
92;SDS011;16232;48.800;9.002;2024-02-26T11:10:06;3.47;;;2.43;;
92;SDS011;16232;48.800;9.002;2024-02-26T11:12:34;3.00;;;2.20;;
92;SDS011;16232;48.800;9.002;2024-02-26T11:15:02;3.10;;;2.00;;
92;SDS011;16232;48.800;9.002;2024-02-26T11:17:31;1.73;;;1.57;;
92;SDS011;16232;48.800;9.002;2024-02-26T11:20:00;7.27;;;2.30;;
92;SDS011;16232;48.800;9.002;2024-02-26T11:22:28;2.93;;;1.93;;
92;SDS011;16232;48.800;9.002;2024-02-26T11:24:56;4.20;;;1.90;;
92;SDS011;16232;48.800;9.002;2024-02-26T11:27:26;3.97;;;1.70;;
92;SDS011;16232;48.800;9.002;2024-02-26T11:29:56;5.53;;;1.97;;
92;SDS011;16232;48.800;9.002;2024-02-26T11:32:26;4.10;;;2.23;;
92;SDS011;16232;48.800;9.002;2024-02-26T11:34:56;2.30;;;1.80;;
92;SDS011;16232;48.800;9.002;2024-02-26T11:37:24;3.13;;;1.60;;
92;SDS011;16232;48.800;9.002;2024-02-26T11:39:52;3.60;;;1.90;;
92;SDS011;16232;48.800;9.002;2024-02-26T11:42:22;5.43;;;1.97;;
92;SDS011;16232;48.800;9.002;2024-02-26T11:44:50;3.23;;;1.90;;
92;SDS011;16232;48.800;9.002;2024-02-26T11:47:18;3.17;;;1.97;;
92;SDS011;16232;48.800;9.002;2024-02-26T11:49:45;2.30;;;1.33;;
92;SDS011;16232;48.800;9.002;2024-02-26T11:52:14;2.30;;;1.57;;
92;SDS011;16232;48.800;9.002;2024-02-26T11:54:46;1.83;;;1.23;;
92;SDS011;16232;48.800;9.002;2024-02-26T11:57:20;1.83;;;1.23;;
92;SDS011;16232;48.800;9.002;2024-02-26T11:59:48;2.80;;;1.40;;
92;SDS011;16232;48.800;9.002;2024-02-26T12:05:01;2.10;;;1.50;;
92;SDS011;16232;48.800;9.002;2024-02-26T12:07:30;4.93;;;1.47;;
92;SDS011;16232;48.800;9.002;2024-02-26T12:10:12;2.27;;;1.53;;
92;SDS011;16232;48.800;9.002;2024-02-26T12:12:42;3.13;;;1.30;;
92;SDS011;16232;48.800;9.002;2024-02-26T12:15:09;2.63;;;1.40;;
92;SDS011;16232;48.800;9.002;2024-02-26T12:17:36;2.77;;;1.40;;
92;SDS011;16232;48.800;9.002;2024-02-26T12:20:08;3.97;;;1.20;;
92;SDS011;16232;48.800;9.002;2024-02-26T12:22:37;5.00;;;1.60;;
92;SDS011;16232;48.800;9.002;2024-02-26T12:25:08;2.57;;;1.20;;
92;SDS011;16232;48.800;9.002;2024-02-26T12:27:36;2.93;;;1.60;;
92;SDS011;16232;48.800;9.002;2024-02-26T12:30:04;2.03;;;1.33;;
92;SDS011;16232;48.800;9.002;2024-02-26T12:32:32;2.40;;;1.70;;
92;SDS011;16232;48.800;9.002;2024-02-26T12:35:00;1.47;;;1.13;;
92;SDS011;16232;48.800;9.002;2024-02-26T12:37:27;2.23;;;1.30;;
92;SDS011;16232;48.800;9.002;2024-02-26T12:39:57;3.20;;;1.10;;
92;SDS011;16232;48.800;9.002;2024-02-26T12:42:24;1.80;;;1.47;;
92;SDS011;16232;48.800;9.002;2024-02-26T12:44:52;2.03;;;1.30;;
92;SDS011;16232;48.800;9.002;2024-02-26T12:47:19;2.70;;;1.30;;
92;SDS011;16232;48.800;9.002;2024-02-26T12:49:47;1.90;;;1.13;;
92;SDS011;16232;48.800;9.002;2024-02-26T12:52:14;1.70;;;1.10;;
92;SDS011;16232;48.800;9.002;2024-02-26T12:54:43;2.30;;;1.00;;
92;SDS011;16232;48.800;9.002;2024-02-26T12:57:12;1.90;;;1.10;;
92;SDS011;16232;48.800;9.002;2024-02-26T12:59:41;2.93;;;1.50;;
92;SDS011;16232;48.800;9.002;2024-02-26T13:02:08;5.10;;;1.43;;
92;SDS011;16232;48.800;9.002;2024-02-26T13:04:36;1.60;;;1.00;;
92;SDS011;16232;48.800;9.002;2024-02-26T13:07:04;1.00;;;0.73;;
92;SDS011;16232;48.800;9.002;2024-02-26T13:09:32;1.80;;;1.10;;
92;SDS011;16232;48.800;9.002;2024-02-26T13:12:00;1.10;;;1.00;;
92;SDS011;16232;48.800;9.002;2024-02-26T13:14:29;3.50;;;1.50;;
92;SDS011;16232;48.800;9.002;2024-02-26T13:16:57;1.57;;;1.17;;
92;SDS011;16232;48.800;9.002;2024-02-26T13:19:24;2.83;;;1.47;;
92;SDS011;16232;48.800;9.002;2024-02-26T13:21:53;1.80;;;1.43;;
92;SDS011;16232;48.800;9.002;2024-02-26T13:24:20;3.27;;;1.40;;
92;SDS011;16232;48.800;9.002;2024-02-26T13:26:53;1.20;;;1.00;;
92;SDS011;16232;48.800;9.002;2024-02-26T13:29:24;4.20;;;1.40;;
92;SDS011;16232;48.800;9.002;2024-02-26T13:31:56;1.67;;;1.10;;
92;SDS011;16232;48.800;9.002;2024-02-26T13:34:24;1.77;;;1.20;;
92;SDS011;16232;48.800;9.002;2024-02-26T13:36:52;1.50;;;0.90;;
92;SDS011;16232;48.800;9.002;2024-02-26T13:39:23;3.63;;;1.23;;
92;SDS011;16232;48.800;9.002;2024-02-26T13:41:51;1.70;;;1.07;;
92;SDS011;16232;48.800;9.002;2024-02-26T13:44:19;0.80;;;0.80;;
92;SDS011;16232;48.800;9.002;2024-02-26T13:46:46;1.17;;;0.53;;
92;SDS011;16232;48.800;9.002;2024-02-26T13:49:16;1.83;;;0.83;;
92;SDS011;16232;48.800;9.002;2024-02-26T13:51:43;0.70;;;0.70;;
92;SDS011;16232;48.800;9.002;2024-02-26T13:54:11;1.43;;;0.80;;
92;SDS011;16232;48.800;9.002;2024-02-26T13:56:40;1.80;;;0.90;;
92;SDS011;16232;48.800;9.002;2024-02-26T13:59:07;0.80;;;0.63;;
92;SDS011;16232;48.800;9.002;2024-02-26T14:01:34;1.50;;;0.77;;
92;SDS011;16232;48.800;9.002;2024-02-26T14:04:02;1.27;;;0.73;;
92;SDS011;16232;48.800;9.002;2024-02-26T14:06:31;1.43;;;0.60;;
92;SDS011;16232;48.800;9.002;2024-02-26T14:08:58;2.43;;;0.73;;
92;SDS011;16232;48.800;9.002;2024-02-26T14:11:26;1.40;;;0.57;;
92;SDS011;16232;48.800;9.002;2024-02-26T14:13:54;1.70;;;0.70;;
92;SDS011;16232;48.800;9.002;2024-02-26T14:16:22;1.10;;;0.80;;
92;SDS011;16232;48.800;9.002;2024-02-26T14:18:49;0.80;;;0.70;;
92;SDS011;16232;48.800;9.002;2024-02-26T14:21:17;0.87;;;0.63;;
92;SDS011;16232;48.800;9.002;2024-02-26T14:23:46;1.00;;;0.70;;
92;SDS011;16232;48.800;9.002;2024-02-26T14:26:14;1.07;;;0.60;;
92;SDS011;16232;48.800;9.002;2024-02-26T14:28:41;1.60;;;0.73;;
92;SDS011;16232;48.800;9.002;2024-02-26T14:31:09;1.27;;;0.70;;
92;SDS011;16232;48.800;9.002;2024-02-26T14:33:37;0.60;;;0.57;;
92;SDS011;16232;48.800;9.002;2024-02-26T14:36:06;2.73;;;0.90;;
92;SDS011;16232;48.800;9.002;2024-02-26T14:38:33;1.40;;;0.60;;
92;SDS011;16232;48.800;9.002;2024-02-26T14:41:02;0.70;;;0.60;;
92;SDS011;16232;48.800;9.002;2024-02-26T14:43:30;0.57;;;0.50;;
92;SDS011;16232;48.800;9.002;2024-02-26T14:45:57;1.10;;;0.70;;
92;SDS011;16232;48.800;9.002;2024-02-26T14:48:25;0.60;;;0.60;;
92;SDS011;16232;48.800;9.002;2024-02-26T14:50:53;1.33;;;0.90;;
92;SDS011;16232;48.800;9.002;2024-02-26T14:53:20;1.83;;;1.00;;
92;SDS011;16232;48.800;9.002;2024-02-26T14:55:48;0.70;;;0.40;;
92;SDS011;16232;48.800;9.002;2024-02-26T14:58:17;1.63;;;0.70;;
92;SDS011;16232;48.800;9.002;2024-02-26T15:00:44;1.13;;;0.77;;
92;SDS011;16232;48.800;9.002;2024-02-26T15:03:12;1.90;;;0.90;;
92;SDS011;16232;48.800;9.002;2024-02-26T15:05:39;1.03;;;0.60;;
92;SDS011;16232;48.800;9.002;2024-02-26T15:08:07;1.57;;;0.90;;
92;SDS011;16232;48.800;9.002;2024-02-26T15:10:40;0.70;;;0.50;;
92;SDS011;16232;48.800;9.002;2024-02-26T15:13:12;0.97;;;0.60;;
92;SDS011;16232;48.800;9.002;2024-02-26T15:15:41;1.37;;;0.50;;
92;SDS011;16232;48.800;9.002;2024-02-26T15:18:09;1.43;;;0.50;;
92;SDS011;16232;48.800;9.002;2024-02-26T15:20:44;1.23;;;0.47;;
92;SDS011;16232;48.800;9.002;2024-02-26T15:23:12;1.00;;;0.70;;
92;SDS011;16232;48.800;9.002;2024-02-26T15:25:39;0.60;;;0.50;;
92;SDS011;16232;48.800;9.002;2024-02-26T15:28:07;1.03;;;0.40;;
92;SDS011;16232;48.800;9.002;2024-02-26T15:30:36;1.80;;;0.77;;
92;SDS011;16232;48.800;9.002;2024-02-26T15:33:05;0.90;;;0.40;;
92;SDS011;16232;48.800;9.002;2024-02-26T15:35:33;2.40;;;1.17;;
92;SDS011;16232;48.800;9.002;2024-02-26T15:38:02;2.03;;;0.90;;